Time;durP1;ratioP1;P1;durP2;ratioP2;P2;SDS_P1;SDS_P2;PMS_P1;PMS_P2;Temp;Humidity;BMP_temperature;BMP_pressure;BME280_temperature;BME280_humidity;BME280_pressure;Samples;Min_cycle;Max_cycle;Signal;HPM_P1;HPM_P2
2022/02/26 00:02:17;;;;;;;;;;;;;;;;;;5039523;28;19923;-57
2022/02/26 00:04:42;;;;;;;;;;;;;;;;;;5051408;28;19916;-57
2022/02/26 00:07:08;;;;;;;;;;;;;;;;;;5048465;28;19920;-57
2022/02/26 00:09:33;;;;;;;;;;;;;;;;;;5056021;28;19912;-57
2022/02/26 00:11:58;;;;;;;;;;;;;;;;;;5036721;28;20022;-56
2022/02/26 00:14:23;;;;;;;;;;;;;;;;;;5053562;28;19924;-58
2022/02/26 00:16:48;;;;;;;;;;;;;;;;;;5034180;28;19935;-57
2022/02/26 00:19:14;;;;;;;;;;;;;;;;;;5051504;28;19909;-59
2022/02/26 00:21:39;;;;;;;;;;;;;;;;;;5056059;28;19928;-57
2022/02/26 00:24:04;;;;;;;;;;;;;;;;;;5051363;28;19919;-58
2022/02/26 00:26:29;;;;;;;;;;;;;;;;;;5047728;28;19920;-58
2022/02/26 00:28:54;;;;;;;;;;;;;;;;;;5053711;28;19923;-57
2022/02/26 00:31:20;;;;;;;;;;;;;;;;;;5039182;28;19923;-59
2022/02/26 00:33:45;;;;;;;;;;;;;;;;;;5040287;28;19917;-58
2022/02/26 00:36:10;;;;;;;;;;;;;;;;;;5053752;28;20419;-58
2022/02/26 00:38:35;;;;;;;;;;;;;;;;;;5053549;28;19931;-56
2022/02/26 00:41:01;;;;;;;;;;;;;;;;;;5051906;28;19909;-59
2022/02/26 00:43:26;;;;;;;;;;;;;;;;;;5049539;28;19970;-60
2022/02/26 00:45:51;;;;;;;;;;;;;;;;;;5057608;28;20857;-58
2022/02/26 00:48:16;;;;;;;;;;;;;;;;;;5043305;28;19967;-58
2022/02/26 00:50:42;;;;;;;;;;;;;;;;;;5051716;28;19923;-57
2022/02/26 00:53:07;;;;;;;;;;;;;;;;;;5051501;28;19909;-58
2022/02/26 00:55:32;;;;;;;;;;;;;;;;;;5032315;28;20015;-59
2022/02/26 00:57:58;;;;;;;;;;;;;;;;;;5051611;28;19951;-58
2022/02/26 01:00:23;;;;;;;;;;;;;;;;;;5039975;28;19912;-58
2022/02/26 01:02:48;;;;;;;;;;;;;;;;;;5017979;28;19913;-57
2022/02/26 01:05:13;;;;;;;;;;;;;;;;;;5019531;28;20003;-57
2022/02/26 01:07:39;;;;;;;;;;;;;;;;;;5049590;28;19965;-57
2022/02/26 01:10:05;;;;;;;;;;;;;;;;;;5036866;28;19923;-57
2022/02/26 01:12:30;;;;;;;;;;;;;;;;;;5051472;28;19963;-57
2022/02/26 01:14:55;;;;;;;;;;;;;;;;;;5035213;28;19921;-58
2022/02/26 01:17:20;;;;;;;;;;;;;;;;;;5054061;28;20033;-56
2022/02/26 01:19:46;;;;;;;;;;;;;;;;;;5046644;28;19920;-57
2022/02/26 01:22:11;;;;;;;;;;;;;;;;;;5058085;28;19918;-57
2022/02/26 01:24:36;;;;;;;;;;;;;;;;;;5051683;28;19951;-58
2022/02/26 01:27:02;;;;;;;;;;;;;;;;;;5049516;28;20333;-58
2022/02/26 01:29:28;;;;;;;;;;;;;;;;;;5049284;28;19919;-58
2022/02/26 01:31:53;;;;;;;;;;;;;;;;;;5051160;28;19913;-58
2022/02/26 01:34:18;;;;;;;;;;;;;;;;;;5054565;28;19927;-57
2022/02/26 01:36:43;;;;;;;;;;;;;;;;;;5040699;28;20016;-58
2022/02/26 01:39:09;;;;;;;;;;;;;;;;;;5053495;28;19947;-58
2022/02/26 01:41:34;;;;;;;;;;;;;;;;;;5055002;28;19941;-58
2022/02/26 01:43:59;;;;;;;;;;;;;;;;;;5056688;28;19999;-57
2022/02/26 01:46:24;;;;;;;;;;;;;;;;;;5062585;28;19944;-58
2022/02/26 01:48:50;;;;;;;;;;;;;;;;;;5051403;28;19935;-58
2022/02/26 01:51:15;;;;;;;;;;;;;;;;;;5053623;28;20011;-59
2022/02/26 01:53:40;;;;;;;;;;;;;;;;;;5042720;28;20000;-59
2022/02/26 01:56:06;;;;;;;;;;;;;;;;;;5055063;28;19960;-58
2022/02/26 01:58:31;;;;;;;;;;;;;;;;;;5053425;28;19913;-58
2022/02/26 02:00:56;;;;;;;;;;;;;;;;;;5037214;28;20813;-59
2022/02/26 02:03:22;;;;;;;;;;;;;;;;;;5054626;28;20222;-57
2022/02/26 02:05:47;;;;;;;;;;;;;;;;;;5052246;28;20047;-57
2022/02/26 02:08:12;;;;;;;;;;;;;;;;;;5034422;28;19912;-59
2022/02/26 02:10:38;;;;;;;;;;;;;;;;;;5055326;28;19912;-59
2022/02/26 02:13:03;;;;;;;;;;;;;;;;;;5055716;28;19913;-58
2022/02/26 02:15:28;;;;;;;;;;;;;;;;;;5067286;28;19922;-57
2022/02/26 02:17:53;;;;;;;;;;;;;;;;;;5035855;28;19912;-59
2022/02/26 02:20:19;;;;;;;;;;;;;;;;;;5057099;28;19931;-58
2022/02/26 02:22:44;;;;;;;;;;;;;;;;;;5057362;28;20265;-57
2022/02/26 02:25:10;;;;;;;;;;;;;;;;;;5051541;28;19939;-58
2022/02/26 02:27:36;;;;;;;;;;;;;;;;;;5056632;28;19927;-58
2022/02/26 02:30:01;;;;;;;;;;;;;;;;;;5056022;28;19916;-61
2022/02/26 02:32:26;;;;;;;;;;;;;;;;;;5044227;28;20268;-58
2022/02/26 02:34:51;;;;;;;;;;;;;;;;;;5035838;28;19921;-58
2022/02/26 02:37:16;;;;;;;;;;;;;;;;;;5052107;28;20478;-59
2022/02/26 02:39:42;;;;;;;;;;;;;;;;;;5057995;28;19967;-58
2022/02/26 02:42:07;;;;;;;;;;;;;;;;;;5059767;28;19918;-59
2022/02/26 02:44:32;;;;;;;;;;;;;;;;;;5053355;28;19935;-58
2022/02/26 02:46:57;;;;;;;;;;;;;;;;;;5053631;28;19913;-57
2022/02/26 02:49:23;;;;;;;;;;;;;;;;;;5041983;28;20006;-58
2022/02/26 02:51:48;;;;;;;;;;;;;;;;;;5057118;28;19913;-58
2022/02/26 02:54:13;;;;;;;;;;;;;;;;;;5053226;28;19952;-58
2022/02/26 02:56:38;;;;;;;;;;;;;;;;;;5055000;28;19955;-58
2022/02/26 02:59:04;;;;;;;;;;;;;;;;;;5055318;28;19912;-60
2022/02/26 03:01:29;;;;;;;;;;;;;;;;;;5055480;28;20550;-61
2022/02/26 03:03:54;;;;;;;;;;;;;;;;;;5066707;28;20292;-58
2022/02/26 03:06:19;;;;;;;;;;;;;;;;;;5024837;28;20540;-58
2022/02/26 03:08:46;;;;;;;;;;;;;;;;;;5036535;28;19913;-59
2022/02/26 03:11:11;;;;;;;;;;;;;;;;;;5054215;28;19912;-58
2022/02/26 03:13:37;;;;;;;;;;;;;;;;;;5054161;28;19917;-58
2022/02/26 03:16:02;;;;;;;;;;;;;;;;;;5043432;28;19932;-58
2022/02/26 03:18:28;;;;;;;;;;;;;;;;;;5053242;28;20020;-58
2022/02/26 03:20:53;;;;;;;;;;;;;;;;;;5052682;28;20007;-57
2022/02/26 03:23:18;;;;;;;;;;;;;;;;;;5039201;28;20074;-59
2022/02/26 03:25:44;;;;;;;;;;;;;;;;;;5054797;28;19913;-58
2022/02/26 03:28:09;;;;;;;;;;;;;;;;;;5055629;28;19912;-58
2022/02/26 03:30:34;;;;;;;;;;;;;;;;;;5052118;28;19921;-61
2022/02/26 03:33:00;;;;;;;;;;;;;;;;;;5053689;28;19920;-59
2022/02/26 03:35:25;;;;;;;;;;;;;;;;;;5052347;28;20268;-58
2022/02/26 03:37:50;;;;;;;;;;;;;;;;;;5063051;28;19912;-58
2022/02/26 03:40:18;;;;;;;;;;;;;;;;;;5060204;28;19959;-58
2022/02/26 03:42:44;;;;;;;;;;;;;;;;;;5054671;28;19924;-57
2022/02/26 03:45:10;;;;;;;;;;;;;;;;;;5038723;28;19913;-60
2022/02/26 03:47:35;;;;;;;;;;;;;;;;;;5063898;28;20638;-59
2022/02/26 03:50:01;;;;;;;;;;;;;;;;;;5061288;28;20413;-59
2022/02/26 03:52:26;;;;;;;;;;;;;;;;;;5053619;28;19919;-57
2022/02/26 03:54:51;;;;;;;;;;;;;;;;;;5055663;28;20003;-60
2022/02/26 03:57:16;;;;;;;;;;;;;;;;;;5054242;28;20020;-58
2022/02/26 03:59:41;;;;;;;;;;;;;;;;;;5052103;28;19913;-58
2022/02/26 04:02:07;;;;;;;;;;;;;;;;;;5052130;28;20379;-58
2022/02/26 04:04:32;;;;;;;;;;;;;;;;;;5060662;28;20348;-58
2022/02/26 04:06:57;;;;;;;;;;;;;;;;;;5051633;28;20430;-56
2022/02/26 04:09:23;;;;;;;;;;;;;;;;;;5049753;28;20517;-59
2022/02/26 04:11:48;;;;;;;;;;;;;;;;;;5050890;28;20337;-58
2022/02/26 04:14:13;;;;;;;;;;;;;;;;;;5053822;28;20891;-60
2022/02/26 04:16:39;;;;;;;;;;;;;;;;;;5051817;28;19913;-58
2022/02/26 04:19:04;;;;;;;;;;;;;;;;;;5038810;28;19908;-60
2022/02/26 04:21:30;;;;;;;;;;;;;;;;;;5054373;28;19951;-58
2022/02/26 04:23:55;;;;;;;;;;;;;;;;;;5053667;28;19912;-59
2022/02/26 04:26:22;;;;;;;;;;;;;;;;;;5048327;28;19916;-58
2022/02/26 04:28:47;;;;;;;;;;;;;;;;;;5052622;28;19952;-57
2022/02/26 04:31:12;;;;;;;;;;;;;;;;;;5052337;28;19952;-59
2022/02/26 04:33:37;;;;;;;;;;;;;;;;;;5052005;28;19959;-59
2022/02/26 04:36:03;;;;;;;;;;;;;;;;;;5052241;28;19916;-58
2022/02/26 04:38:29;;;;;;;;;;;;;;;;;;5051565;28;19962;-59
2022/02/26 04:40:54;;;;;;;;;;;;;;;;;;5055412;28;19916;-60
2022/02/26 04:43:19;;;;;;;;;;;;;;;;;;5049080;28;20311;-58
2022/02/26 04:45:45;;;;;;;;;;;;;;;;;;5029681;28;19916;-58
2022/02/26 04:48:10;;;;;;;;;;;;;;;;;;5054435;28;19923;-57
2022/02/26 04:50:35;;;;;;;;;;;;;;;;;;5052086;28;20583;-59
2022/02/26 04:53:00;;;;;;;;;;;;;;;;;;5054015;28;20004;-59
2022/02/26 04:55:26;;;;;;;;;;;;;;;;;;5048445;28;19928;-58
2022/02/26 04:57:51;;;;;;;;;;;;;;;;;;5054615;28;20000;-58
2022/02/26 05:00:16;;;;;;;;;;;;;;;;;;5057896;28;20010;-59
2022/02/26 05:02:41;;;;;;;;;;;;;;;;;;5053106;28;20007;-58
2022/02/26 05:05:07;;;;;;;;;;;;;;;;;;5042794;28;19927;-61
2022/02/26 05:07:32;;;;;;;;;;;;;;;;;;5050926;28;19917;-57
2022/02/26 05:09:57;;;;;;;;;;;;;;;;;;5051139;28;19909;-59
2022/02/26 05:12:22;;;;;;;;;;;;;;;;;;5036472;28;20301;-58
2022/02/26 05:14:48;;;;;;;;;;;;;;;;;;5038130;28;20314;-57
2022/02/26 05:17:13;;;;;;;;;;;;;;;;;;5053430;28;20340;-58
2022/02/26 05:19:38;;;;;;;;;;;;;;;;;;5053429;28;19921;-57
2022/02/26 05:22:04;;;;;;;;;;;;;;;;;;5059652;28;19912;-60
2022/02/26 05:24:29;;;;;;;;;;;;;;;;;;5050073;28;19919;-57
2022/02/26 05:26:54;;;;;;;;;;;;;;;;;;5052135;28;19917;-58
2022/02/26 05:29:22;;;;;;;;;;;;;;;;;;5050101;28;19912;-60
2022/02/26 05:31:47;;;;;;;;;;;;;;;;;;5049036;28;20624;-59
2022/02/26 05:34:13;;;;;;;;;;;;;;;;;;5052096;28;20455;-57
2022/02/26 05:36:38;;;;;;;;;;;;;;;;;;5056490;28;19913;-61
2022/02/26 05:39:03;;;;;;;;;;;;;;;;;;5049296;28;19939;-58
2022/02/26 05:41:28;;;;;;;;;;;;;;;;;;5048921;28;20327;-58
2022/02/26 05:43:54;;;;;;;;;;;;;;;;;;5050779;28;19948;-62
2022/02/26 05:46:19;;;;;;;;;;;;;;;;;;5050199;28;20470;-58
2022/02/26 05:48:44;;;;;;;;;;;;;;;;;;5050526;28;20008;-58
2022/02/26 05:51:09;;;;;;;;;;;;;;;;;;5047852;28;19992;-58
2022/02/26 05:53:35;;;;;;;;;;;;;;;;;;5050929;28;19924;-62
2022/02/26 05:56:00;;;;;;;;;;;;;;;;;;5050704;28;19994;-59
2022/02/26 05:58:25;;;;;;;;;;;;;;;;;;5047641;28;19967;-57
2022/02/26 06:00:50;;;;;;;;;;;;;;;;;;5049049;28;19917;-58
2022/02/26 06:03:16;;;;;;;;;;;;;;;;;;5048231;28;19951;-56
2022/02/26 06:05:41;;;;;;;;;;;;;;;;;;5049750;28;19917;-57
2022/02/26 06:08:06;;;;;;;;;;;;;;;;;;5033497;28;19927;-60
2022/02/26 06:10:31;;;;;;;;;;;;;;;;;;5048432;28;19947;-58
2022/02/26 06:12:57;;;;;;;;;;;;;;;;;;5053500;28;19916;-59
2022/02/26 06:15:22;;;;;;;;;;;;;;;;;;5049685;28;20625;-59
2022/02/26 06:17:47;;;;;;;;;;;;;;;;;;5054971;28;20045;-57
2022/02/26 06:20:13;;;;;;;;;;;;;;;;;;5049738;28;20361;-59
2022/02/26 06:22:38;;;;;;;;;;;;;;;;;;5052733;28;20395;-57
2022/02/26 06:25:03;;;;;;;;;;;;;;;;;;5054915;28;19940;-59
2022/02/26 06:27:28;;;;;;;;;;;;;;;;;;5056465;28;19912;-58
2022/02/26 06:29:54;;;;;;;;;;;;;;;;;;5038758;28;19913;-59
2022/02/26 06:32:19;;;;;;;;;;;;;;;;;;5054777;28;19971;-59
2022/02/26 06:34:44;;;;;;;;;;;;;;;;;;5053102;28;20276;-58
2022/02/26 06:37:09;;;;;;;;;;;;;;;;;;5052768;28;19951;-59
2022/02/26 06:39:35;;;;;;;;;;;;;;;;;;5058504;28;19913;-57
2022/02/26 06:42:00;;;;;;;;;;;;;;;;;;5041353;28;19934;-59
2022/02/26 06:44:25;;;;;;;;;;;;;;;;;;5055339;28;19912;-59
2022/02/26 06:46:50;;;;;;;;;;;;;;;;;;5054053;28;19912;-58
2022/02/26 06:49:16;;;;;;;;;;;;;;;;;;5056865;28;19912;-58
2022/02/26 06:51:41;;;;;;;;;;;;;;;;;;5063446;28;19913;-57
2022/02/26 06:54:06;;;;;;;;;;;;;;;;;;5032698;28;19916;-58
2022/02/26 06:56:32;;;;;;;;;;;;;;;;;;5057642;28;19920;-59
2022/02/26 06:58:57;;;;;;;;;;;;;;;;;;5057349;28;20540;-57
2022/02/26 07:01:22;;;;;;;;;;;;;;;;;;5054261;28;19998;-57
2022/02/26 07:03:47;;;;;;;;;;;;;;;;;;5056496;28;19913;-61
2022/02/26 07:06:12;;;;;;;;;;;;;;;;;;5053793;28;19940;-57
2022/02/26 07:08:38;;;;;;;;;;;;;;;;;;5058688;28;19908;-61
2022/02/26 07:11:03;;;;;;;;;;;;;;;;;;5054717;28;20266;-58
2022/02/26 07:13:28;;;;;;;;;;;;;;;;;;5054496;28;19925;-57
2022/02/26 07:15:54;;;;;;;;;;;;;;;;;;5053241;28;19920;-58
2022/02/26 07:18:19;;;;;;;;;;;;;;;;;;5055310;28;19912;-59
2022/02/26 07:20:44;;;;;;;;;;;;;;;;;;5055075;28;19988;-58
2022/02/26 07:23:09;;;;;;;;;;;;;;;;;;5051674;28;19921;-57
2022/02/26 07:25:34;;;;;;;;;;;;;;;;;;5038307;28;19920;-59
2022/02/26 07:28:00;;;;;;;;;;;;;;;;;;5051160;28;19912;-60
2022/02/26 07:30:25;;;;;;;;;;;;;;;;;;5051158;28;19913;-59
2022/02/26 07:32:51;;;;;;;;;;;;;;;;;;5054491;28;20022;-57
2022/02/26 07:35:16;;;;;;;;;;;;;;;;;;5052107;28;19997;-59
2022/02/26 07:37:43;;;;;;;;;;;;;;;;;;5037522;28;20350;-57
2022/02/26 07:40:08;;;;;;;;;;;;;;;;;;5035894;28;19912;-58
2022/02/26 07:42:33;;;;;;;;;;;;;;;;;;5056982;28;20277;-57
2022/02/26 07:44:58;;;;;;;;;;;;;;;;;;5054565;28;20638;-59
2022/02/26 07:47:24;;;;;;;;;;;;;;;;;;5052174;28;19917;-57
2022/02/26 07:49:49;;;;;;;;;;;;;;;;;;5036355;28;20425;-58
2022/02/26 07:52:14;;;;;;;;;;;;;;;;;;5048173;28;19943;-59
2022/02/26 07:54:39;;;;;;;;;;;;;;;;;;5054731;28;19925;-57
2022/02/26 07:57:05;;;;;;;;;;;;;;;;;;5045630;28;19920;-57
2022/02/26 07:59:30;;;;;;;;;;;;;;;;;;5043162;28;19920;-57
2022/02/26 08:01:59;;;;;;;;;;;;;;;;;;5050897;28;19916;-58
2022/02/26 08:04:24;;;;;;;;;;;;;;;;;;5049984;28;19935;-57
2022/02/26 08:06:50;;;;;;;;;;;;;;;;;;5048639;28;19913;-58
2022/02/26 08:09:15;;;;;;;;;;;;;;;;;;5043039;28;19923;-57
2022/02/26 08:11:40;;;;;;;;;;;;;;;;;;5049871;28;19913;-58
2022/02/26 08:14:06;;;;;;;;;;;;;;;;;;5047482;28;20425;-57
2022/02/26 08:16:31;;;;;;;;;;;;;;;;;;5033172;28;19917;-57
2022/02/26 08:18:56;;;;;;;;;;;;;;;;;;5047798;28;19917;-57
2022/02/26 08:21:21;;;;;;;;;;;;;;;;;;5050190;28;19920;-60
2022/02/26 08:23:48;;;;;;;;;;;;;;;;;;5054899;28;19939;-56
2022/02/26 08:26:13;;;;;;;;;;;;;;;;;;5046736;28;19978;-56
2022/02/26 08:28:38;;;;;;;;;;;;;;;;;;5044151;28;19917;-57
2022/02/26 08:31:03;;;;;;;;;;;;;;;;;;5052795;28;19947;-59
2022/02/26 08:33:29;;;;;;;;;;;;;;;;;;5030670;28;20057;-56
2022/02/26 08:35:54;;;;;;;;;;;;;;;;;;5048112;28;19925;-57
2022/02/26 08:38:19;;;;;;;;;;;;;;;;;;5048873;28;19916;-56
2022/02/26 08:40:45;;;;;;;;;;;;;;;;;;5044218;28;20544;-60
2022/02/26 08:43:10;;;;;;;;;;;;;;;;;;5048300;28;19920;-58
2022/02/26 08:45:35;;;;;;;;;;;;;;;;;;5045832;28;20035;-57
2022/02/26 08:48:00;;;;;;;;;;;;;;;;;;5032340;28;19920;-59
2022/02/26 08:50:25;;;;;;;;;;;;;;;;;;5037557;28;20007;-58
2022/02/26 08:52:51;;;;;;;;;;;;;;;;;;5029933;28;20401;-55
2022/02/26 08:55:16;;;;;;;;;;;;;;;;;;5048190;28;19924;-57
2022/02/26 08:57:41;;;;;;;;;;;;;;;;;;5044861;28;19982;-57
2022/02/26 09:00:06;;;;;;;;;;;;;;;;;;5046355;28;19916;-59
2022/02/26 09:02:32;;;;;;;;;;;;;;;;;;5051402;28;19966;-59
2022/02/26 09:04:57;;;;;;;;;;;;;;;;;;5041969;28;19970;-58
2022/02/26 09:07:22;;;;;;;;;;;;;;;;;;5049639;28;19916;-59
2022/02/26 09:09:47;;;;;;;;;;;;;;;;;;5046261;28;19938;-56
2022/02/26 09:12:13;;;;;;;;;;;;;;;;;;5044265;28;19963;-57
2022/02/26 09:14:38;;;;;;;;;;;;;;;;;;5051069;28;19928;-57
2022/02/26 09:17:03;;;;;;;;;;;;;;;;;;5030459;28;19919;-59
2022/02/26 09:19:28;;;;;;;;;;;;;;;;;;5047382;28;19917;-57
2022/02/26 09:21:54;;;;;;;;;;;;;;;;;;5046503;28;19920;-59
2022/02/26 09:24:19;;;;;;;;;;;;;;;;;;5034741;28;19909;-59
2022/02/26 09:26:44;;;;;;;;;;;;;;;;;;5045829;28;20415;-60
2022/02/26 09:29:09;;;;;;;;;;;;;;;;;;5050179;28;19936;-57
2022/02/26 09:31:40;;;;;;;;;;;;;;;;;;5049501;28;20010;-57
2022/02/26 09:34:05;;;;;;;;;;;;;;;;;;5051282;28;19913;-58
2022/02/26 09:36:30;;;;;;;;;;;;;;;;;;5050124;28;20250;-57
2022/02/26 09:38:56;;;;;;;;;;;;;;;;;;5052548;28;20273;-57
2022/02/26 09:41:21;;;;;;;;;;;;;;;;;;5050327;28;19967;-58
2022/02/26 09:43:46;;;;;;;;;;;;;;;;;;5054186;28;19908;-57
2022/02/26 09:46:12;;;;;;;;;;;;;;;;;;5051367;28;19917;-56
2022/02/26 09:48:37;;;;;;;;;;;;;;;;;;5036857;28;20024;-57
2022/02/26 09:51:03;;;;;;;;;;;;;;;;;;5052240;28;20333;-58
2022/02/26 09:53:29;;;;;;;;;;;;;;;;;;5050376;28;19917;-56
2022/02/26 09:55:54;;;;;;;;;;;;;;;;;;5051830;28;19921;-59
2022/02/26 09:58:19;;;;;;;;;;;;;;;;;;5052909;28;19916;-57
2022/02/26 10:00:44;;;;;;;;;;;;;;;;;;5052716;28;19947;-57
2022/02/26 10:03:09;;;;;;;;;;;;;;;;;;5056513;28;20073;-57
2022/02/26 10:05:35;;;;;;;;;;;;;;;;;;5054652;28;19924;-57
2022/02/26 10:08:00;;;;;;;;;;;;;;;;;;5028061;28;19920;-57
2022/02/26 10:10:27;;;;;;;;;;;;;;;;;;5055492;28;20003;-58
2022/02/26 10:12:52;;;;;;;;;;;;;;;;;;5055204;28;19916;-56
2022/02/26 10:15:17;;;;;;;;;;;;;;;;;;5052784;28;20273;-57
2022/02/26 10:17:42;;;;;;;;;;;;;;;;;;5055211;28;19913;-57
2022/02/26 10:20:08;;;;;;;;;;;;;;;;;;5057147;28;20282;-56
2022/02/26 10:22:33;;;;;;;;;;;;;;;;;;5039594;28;20004;-56
2022/02/26 10:24:58;;;;;;;;;;;;;;;;;;5056274;28;19962;-57
2022/02/26 10:27:23;;;;;;;;;;;;;;;;;;5053500;28;19951;-58
2022/02/26 10:29:48;;;;;;;;;;;;;;;;;;5036667;28;19916;-57
2022/02/26 10:32:14;;;;;;;;;;;;;;;;;;5038020;28;19909;-58
2022/02/26 10:34:39;;;;;;;;;;;;;;;;;;5056226;28;19925;-61
2022/02/26 10:37:05;;;;;;;;;;;;;;;;;;5050314;28;19919;-58
2022/02/26 10:39:30;;;;;;;;;;;;;;;;;;5055331;28;19912;-57
2022/02/26 10:41:55;;;;;;;;;;;;;;;;;;5052822;28;20284;-57
2022/02/26 10:44:21;;;;;;;;;;;;;;;;;;5038682;28;19917;-56
2022/02/26 10:46:46;;;;;;;;;;;;;;;;;;5050484;28;19912;-59
2022/02/26 10:49:12;;;;;;;;;;;;;;;;;;5052908;28;19942;-59
2022/02/26 10:51:38;;;;;;;;;;;;;;;;;;5055114;28;20252;-58
2022/02/26 10:54:03;;;;;;;;;;;;;;;;;;5054763;28;20369;-57
2022/02/26 10:56:29;;;;;;;;;;;;;;;;;;5054947;28;19964;-57
2022/02/26 10:58:55;;;;;;;;;;;;;;;;;;5040608;28;20007;-59
2022/02/26 11:01:20;;;;;;;;;;;;;;;;;;5054799;28;19912;-61
2022/02/26 11:03:45;;;;;;;;;;;;;;;;;;5049187;28;19999;-58
2022/02/26 11:06:11;;;;;;;;;;;;;;;;;;5050733;28;20003;-60
2022/02/26 11:08:36;;;;;;;;;;;;;;;;;;5036702;28;20016;-58
2022/02/26 11:11:01;;;;;;;;;;;;;;;;;;5053668;28;19916;-58
2022/02/26 11:13:27;;;;;;;;;;;;;;;;;;5036595;28;20023;-57
2022/02/26 11:15:52;;;;;;;;;;;;;;;;;;5052093;28;19920;-60
2022/02/26 11:18:17;;;;;;;;;;;;;;;;;;5051409;28;19924;-58
2022/02/26 11:20:42;;;;;;;;;;;;;;;;;;5051463;28;19913;-58
2022/02/26 11:23:08;;;;;;;;;;;;;;;;;;5053261;28;19912;-57
2022/02/26 11:25:34;;;;;;;;;;;;;;;;;;5037539;28;19958;-59
2022/02/26 11:28:00;;;;;;;;;;;;;;;;;;5052771;28;19913;-58
2022/02/26 11:30:25;;;;;;;;;;;;;;;;;;5054623;28;19908;-57
2022/02/26 11:32:50;;;;;;;;;;;;;;;;;;5052009;28;19925;-59
2022/02/26 11:35:15;;;;;;;;;;;;;;;;;;5054198;28;19924;-57
2022/02/26 11:37:40;;;;;;;;;;;;;;;;;;5035770;28;19917;-59
2022/02/26 11:40:06;;;;;;;;;;;;;;;;;;5034686;28;19921;-57
2022/02/26 11:42:31;;;;;;;;;;;;;;;;;;5053159;28;19923;-58
2022/02/26 11:44:57;;;;;;;;;;;;;;;;;;5053186;28;19920;-59
2022/02/26 11:47:22;;;;;;;;;;;;;;;;;;5052173;28;19917;-60
2022/02/26 11:49:48;;;;;;;;;;;;;;;;;;5049594;28;20004;-58
2022/02/26 11:52:13;;;;;;;;;;;;;;;;;;5037855;28;19913;-61
2022/02/26 11:54:38;;;;;;;;;;;;;;;;;;5037514;28;19928;-58
2022/02/26 11:57:03;;;;;;;;;;;;;;;;;;5037278;28;19967;-59
2022/02/26 11:59:28;;;;;;;;;;;;;;;;;;5031844;28;19966;-61
2022/02/26 12:01:54;;;;;;;;;;;;;;;;;;5051589;28;19917;-58
2022/02/26 12:04:20;;;;;;;;;;;;;;;;;;5038951;28;19943;-61
2022/02/26 12:06:45;;;;;;;;;;;;;;;;;;5051473;28;19917;-59
2022/02/26 12:09:11;;;;;;;;;;;;;;;;;;5038684;28;20242;-58
2022/02/26 12:11:36;;;;;;;;;;;;;;;;;;5054852;28;20670;-58
2022/02/26 12:14:01;;;;;;;;;;;;;;;;;;5054400;28;19956;-59
2022/02/26 12:16:26;;;;;;;;;;;;;;;;;;5054870;28;20008;-58
2022/02/26 12:18:52;;;;;;;;;;;;;;;;;;5054155;28;19984;-58
2022/02/26 12:21:18;;;;;;;;;;;;;;;;;;5051795;28;19923;-57
2022/02/26 12:23:43;;;;;;;;;;;;;;;;;;5055225;28;19921;-58
2022/02/26 12:26:10;;;;;;;;;;;;;;;;;;5051979;28;19909;-57
2022/02/26 12:28:36;;;;;;;;;;;;;;;;;;5052410;28;19969;-59
2022/02/26 12:31:01;;;;;;;;;;;;;;;;;;5053052;28;20054;-58
2022/02/26 12:33:26;;;;;;;;;;;;;;;;;;5051246;28;19912;-57
2022/02/26 12:35:51;;;;;;;;;;;;;;;;;;5053951;28;19921;-57
2022/02/26 12:38:16;;;;;;;;;;;;;;;;;;5050894;28;19912;-57
2022/02/26 12:40:42;;;;;;;;;;;;;;;;;;5053346;28;20003;-60
2022/02/26 12:43:09;;;;;;;;;;;;;;;;;;5051494;28;19929;-58
2022/02/26 12:45:34;;;;;;;;;;;;;;;;;;5046481;28;20028;-58
2022/02/26 12:47:59;;;;;;;;;;;;;;;;;;5031995;28;20011;-59
2022/02/26 12:50:24;;;;;;;;;;;;;;;;;;5055945;28;20341;-58
2022/02/26 12:52:50;;;;;;;;;;;;;;;;;;5035313;28;20264;-58
2022/02/26 12:55:15;;;;;;;;;;;;;;;;;;5052147;28;20681;-59
2022/02/26 12:57:40;;;;;;;;;;;;;;;;;;5052150;28;20333;-60
2022/02/26 13:00:07;;;;;;;;;;;;;;;;;;5042235;28;20324;-60
2022/02/26 13:02:32;;;;;;;;;;;;;;;;;;5034643;28;20473;-58
2022/02/26 13:04:58;;;;;;;;;;;;;;;;;;5035331;28;19916;-59
2022/02/26 13:07:24;;;;;;;;;;;;;;;;;;5046805;28;19924;-58
2022/02/26 13:09:52;;;;;;;;;;;;;;;;;;5049665;28;19913;-57
2022/02/26 13:12:17;;;;;;;;;;;;;;;;;;5049570;28;19920;-59
2022/02/26 13:14:42;;;;;;;;;;;;;;;;;;5050869;28;19916;-59
2022/02/26 13:17:07;;;;;;;;;;;;;;;;;;5032261;28;19974;-58
2022/02/26 13:19:33;;;;;;;;;;;;;;;;;;5051191;28;19909;-61
2022/02/26 13:21:58;;;;;;;;;;;;;;;;;;5033997;28;19959;-58
2022/02/26 13:24:23;;;;;;;;;;;;;;;;;;5051448;28;19951;-59
2022/02/26 13:26:48;;;;;;;;;;;;;;;;;;5052799;28;19917;-60
2022/02/26 13:29:14;;;;;;;;;;;;;;;;;;5052000;28;19999;-60
2022/02/26 13:31:39;;;;;;;;;;;;;;;;;;5051481;28;19936;-60
2022/02/26 13:34:05;;;;;;;;;;;;;;;;;;5035450;28;20010;-58
2022/02/26 13:36:30;;;;;;;;;;;;;;;;;;5053193;28;20105;-60
2022/02/26 13:38:56;;;;;;;;;;;;;;;;;;5050664;28;19913;-57
2022/02/26 13:41:21;;;;;;;;;;;;;;;;;;5051397;28;19917;-60
2022/02/26 13:43:46;;;;;;;;;;;;;;;;;;5053703;28;19977;-59
2022/02/26 13:46:11;;;;;;;;;;;;;;;;;;5052107;28;20019;-59
2022/02/26 13:48:37;;;;;;;;;;;;;;;;;;5054519;28;19916;-57
2022/02/26 13:51:02;;;;;;;;;;;;;;;;;;5037252;28;19963;-56
2022/02/26 13:53:27;;;;;;;;;;;;;;;;;;5033310;28;19928;-56
2022/02/26 13:55:52;;;;;;;;;;;;;;;;;;5052191;28;20765;-56
2022/02/26 13:58:18;;;;;;;;;;;;;;;;;;5054107;28;20600;-60
2022/02/26 14:00:43;;;;;;;;;;;;;;;;;;5036183;28;19912;-59
2022/02/26 14:03:08;;;;;;;;;;;;;;;;;;5039003;28;19920;-59
2022/02/26 14:05:34;;;;;;;;;;;;;;;;;;5053029;28;20283;-59
2022/02/26 14:07:59;;;;;;;;;;;;;;;;;;5054020;28;19913;-59
2022/02/26 14:10:24;;;;;;;;;;;;;;;;;;5052951;28;19919;-61
2022/02/26 14:12:49;;;;;;;;;;;;;;;;;;5051223;28;20017;-58
2022/02/26 14:15:14;;;;;;;;;;;;;;;;;;5043023;28;20269;-58
2022/02/26 14:17:40;;;;;;;;;;;;;;;;;;5052168;28;20174;-59
2022/02/26 14:20:05;;;;;;;;;;;;;;;;;;5052897;28;19974;-59
2022/02/26 14:22:30;;;;;;;;;;;;;;;;;;5035864;28;20042;-58
2022/02/26 14:24:56;;;;;;;;;;;;;;;;;;5021093;28;19969;-58
2022/02/26 14:27:21;;;;;;;;;;;;;;;;;;5009869;28;20003;-60
2022/02/26 14:29:46;;;;;;;;;;;;;;;;;;5017785;28;19909;-58
2022/02/26 14:32:11;;;;;;;;;;;;;;;;;;5019445;28;20036;-60
2022/02/26 14:34:36;;;;;;;;;;;;;;;;;;5021097;28;19905;-59
2022/02/26 14:37:02;;;;;;;;;;;;;;;;;;4992266;28;19932;-60
2022/02/26 14:39:27;;;;;;;;;;;;;;;;;;5015992;28;19913;-59
2022/02/26 14:41:52;;;;;;;;;;;;;;;;;;5018500;28;20027;-59
2022/02/26 14:44:17;;;;;;;;;;;;;;;;;;5011513;28;19928;-58
2022/02/26 14:46:43;;;;;;;;;;;;;;;;;;5021356;28;19921;-59
2022/02/26 14:49:08;;;;;;;;;;;;;;;;;;5016074;28;19925;-58
2022/02/26 14:51:33;;;;;;;;;;;;;;;;;;5021295;28;19913;-60
2022/02/26 14:53:58;;;;;;;;;;;;;;;;;;5020130;28;20024;-59
2022/02/26 14:56:24;;;;;;;;;;;;;;;;;;5012740;28;19920;-59
2022/02/26 14:58:49;;;;;;;;;;;;;;;;;;5017115;28;19913;-58
2022/02/26 15:01:14;;;;;;;;;;;;;;;;;;5015982;28;19909;-58
2022/02/26 15:03:40;;;;;;;;;;;;;;;;;;4999010;28;19917;-59
2022/02/26 15:06:05;;;;;;;;;;;;;;;;;;5013836;28;19921;-59
2022/02/26 15:08:30;;;;;;;;;;;;;;;;;;5014143;28;19920;-59
2022/02/26 15:10:55;;;;;;;;;;;;;;;;;;5013766;28;19932;-60
2022/02/26 15:13:21;;;;;;;;;;;;;;;;;;5014308;28;20007;-59
2022/02/26 15:15:47;;;;;;;;;;;;;;;;;;5012989;28;20438;-59
2022/02/26 15:18:12;;;;;;;;;;;;;;;;;;4999576;28;19987;-62
2022/02/26 15:20:37;;;;;;;;;;;;;;;;;;5016612;28;19914;-59
2022/02/26 15:23:02;;;;;;;;;;;;;;;;;;5004546;28;19916;-60
2022/02/26 15:25:27;;;;;;;;;;;;;;;;;;5019385;28;20475;-59
2022/02/26 15:27:53;;;;;;;;;;;;;;;;;;5016688;28;19945;-59
2022/02/26 15:30:18;;;;;;;;;;;;;;;;;;5015235;28;20662;-59
2022/02/26 15:32:43;;;;;;;;;;;;;;;;;;5031348;28;20499;-59
2022/02/26 15:35:09;;;;;;;;;;;;;;;;;;5000860;28;19938;-59
2022/02/26 15:37:34;;;;;;;;;;;;;;;;;;4999920;28;19948;-58
2022/02/26 15:40:00;;;;;;;;;;;;;;;;;;5014010;28;20004;-60
2022/02/26 15:42:26;;;;;;;;;;;;;;;;;;5015352;28;19920;-59
2022/02/26 15:44:51;;;;;;;;;;;;;;;;;;5014971;28;20313;-58
2022/02/26 15:47:16;;;;;;;;;;;;;;;;;;5015845;28;19913;-58
2022/02/26 15:49:41;;;;;;;;;;;;;;;;;;5001654;28;19913;-58
2022/02/26 15:52:07;;;;;;;;;;;;;;;;;;5013995;28;19929;-60
2022/02/26 15:54:32;;;;;;;;;;;;;;;;;;5014935;28;19909;-59
2022/02/26 15:56:57;;;;;;;;;;;;;;;;;;5009823;28;19913;-59
2022/02/26 15:59:22;;;;;;;;;;;;;;;;;;5018157;28;19936;-59
2022/02/26 16:01:48;;;;;;;;;;;;;;;;;;5015080;28;19917;-59
2022/02/26 16:04:13;;;;;;;;;;;;;;;;;;4998745;28;19917;-59
2022/02/26 16:06:39;;;;;;;;;;;;;;;;;;5026359;28;20284;-58
2022/02/26 16:09:04;;;;;;;;;;;;;;;;;;5013152;28;20013;-58
2022/02/26 16:11:29;;;;;;;;;;;;;;;;;;5013335;28;19959;-58
2022/02/26 16:13:54;;;;;;;;;;;;;;;;;;5017241;28;19921;-58
2022/02/26 16:16:20;;;;;;;;;;;;;;;;;;5010965;28;19956;-59
2022/02/26 16:18:46;;;;;;;;;;;;;;;;;;5014411;28;19972;-58
2022/02/26 16:21:11;;;;;;;;;;;;;;;;;;5012402;28;19917;-57
2022/02/26 16:23:36;;;;;;;;;;;;;;;;;;4997778;28;20009;-58
2022/02/26 16:26:02;;;;;;;;;;;;;;;;;;5015702;28;19921;-58
2022/02/26 16:28:27;;;;;;;;;;;;;;;;;;5013327;28;20009;-57
2022/02/26 16:30:52;;;;;;;;;;;;;;;;;;5024798;28;20426;-59
2022/02/26 16:33:20;;;;;;;;;;;;;;;;;;5012875;28;20247;-59